sensor_id;sensor_type;location;lat;lon;timestamp;P1;durP1;ratioP1;P2;durP2;ratioP2
10365;SDS011;5229;41.820;23.490;2023-01-06T00:01:02;3.27;;;2.30;;
10365;SDS011;5229;41.820;23.490;2023-01-06T00:03:31;3.80;;;3.07;;
10365;SDS011;5229;41.820;23.490;2023-01-06T00:05:58;3.33;;;2.10;;
10365;SDS011;5229;41.820;23.490;2023-01-06T00:08:26;3.13;;;2.67;;
10365;SDS011;5229;41.820;23.490;2023-01-06T00:13:42;2.80;;;2.47;;
10365;SDS011;5229;41.820;23.490;2023-01-06T00:16:10;2.83;;;2.33;;
10365;SDS011;5229;41.820;23.490;2023-01-06T00:18:39;5.17;;;2.77;;
10365;SDS011;5229;41.820;23.490;2023-01-06T00:21:07;4.20;;;3.20;;
10365;SDS011;5229;41.820;23.490;2023-01-06T00:23:35;4.10;;;2.80;;
10365;SDS011;5229;41.820;23.490;2023-01-06T00:26:02;3.57;;;2.10;;
10365;SDS011;5229;41.820;23.490;2023-01-06T00:28:30;3.33;;;2.47;;
10365;SDS011;5229;41.820;23.490;2023-01-06T00:30:57;1.67;;;1.43;;
10365;SDS011;5229;41.820;23.490;2023-01-06T00:33:24;1.80;;;1.60;;
10365;SDS011;5229;41.820;23.490;2023-01-06T00:35:56;2.20;;;1.60;;
10365;SDS011;5229;41.820;23.490;2023-01-06T00:38:23;2.40;;;1.60;;
10365;SDS011;5229;41.820;23.490;2023-01-06T00:40:50;2.57;;;1.67;;
10365;SDS011;5229;41.820;23.490;2023-01-06T00:43:17;1.47;;;1.20;;
10365;SDS011;5229;41.820;23.490;2023-01-06T00:45:44;1.43;;;1.33;;
10365;SDS011;5229;41.820;23.490;2023-01-06T00:48:11;3.10;;;2.20;;
10365;SDS011;5229;41.820;23.490;2023-01-06T00:50:37;5.20;;;2.93;;
10365;SDS011;5229;41.820;23.490;2023-01-06T00:53:06;4.90;;;3.10;;
10365;SDS011;5229;41.820;23.490;2023-01-06T00:55:32;5.33;;;3.70;;
10365;SDS011;5229;41.820;23.490;2023-01-06T00:57:59;3.87;;;2.90;;
10365;SDS011;5229;41.820;23.490;2023-01-06T01:00:26;3.83;;;3.00;;
10365;SDS011;5229;41.820;23.490;2023-01-06T01:02:53;4.57;;;3.97;;
10365;SDS011;5229;41.820;23.490;2023-01-06T01:05:19;4.33;;;3.87;;
10365;SDS011;5229;41.820;23.490;2023-01-06T01:07:46;5.20;;;3.90;;
10365;SDS011;5229;41.820;23.490;2023-01-06T01:10:14;4.77;;;3.53;;
10365;SDS011;5229;41.820;23.490;2023-01-06T01:12:41;6.10;;;3.93;;
10365;SDS011;5229;41.820;23.490;2023-01-06T01:15:08;6.50;;;4.00;;
10365;SDS011;5229;41.820;23.490;2023-01-06T01:17:54;4.40;;;3.53;;
10365;SDS011;5229;41.820;23.490;2023-01-06T01:20:21;6.03;;;4.03;;
10365;SDS011;5229;41.820;23.490;2023-01-06T01:22:48;6.03;;;4.07;;
10365;SDS011;5229;41.820;23.490;2023-01-06T01:25:17;6.30;;;3.93;;
10365;SDS011;5229;41.820;23.490;2023-01-06T01:27:43;4.87;;;3.20;;
10365;SDS011;5229;41.820;23.490;2023-01-06T01:30:10;5.60;;;3.20;;
10365;SDS011;5229;41.820;23.490;2023-01-06T01:32:37;3.47;;;2.23;;
10365;SDS011;5229;41.820;23.490;2023-01-06T01:35:04;2.50;;;2.17;;
10365;SDS011;5229;41.820;23.490;2023-01-06T01:37:32;3.63;;;2.87;;
10365;SDS011;5229;41.820;23.490;2023-01-06T01:39:58;6.40;;;4.27;;
10365;SDS011;5229;41.820;23.490;2023-01-06T01:42:27;5.93;;;4.30;;
10365;SDS011;5229;41.820;23.490;2023-01-06T01:45:00;6.47;;;4.23;;
10365;SDS011;5229;41.820;23.490;2023-01-06T01:47:31;7.47;;;4.50;;
10365;SDS011;5229;41.820;23.490;2023-01-06T01:50:10;5.77;;;3.70;;
10365;SDS011;5229;41.820;23.490;2023-01-06T01:52:41;5.93;;;3.80;;
10365;SDS011;5229;41.820;23.490;2023-01-06T01:58:13;4.73;;;3.73;;
10365;SDS011;5229;41.820;23.490;2023-01-06T02:00:45;6.70;;;3.23;;
10365;SDS011;5229;41.820;23.490;2023-01-06T02:03:12;3.37;;;3.03;;
10365;SDS011;5229;41.820;23.490;2023-01-06T02:11:37;3.13;;;2.63;;
10365;SDS011;5229;41.820;23.490;2023-01-06T02:14:09;3.27;;;2.20;;
10365;SDS011;5229;41.820;23.490;2023-01-06T02:16:39;2.97;;;2.37;;
10365;SDS011;5229;41.820;23.490;2023-01-06T02:19:20;2.53;;;2.20;;
10365;SDS011;5229;41.820;23.490;2023-01-06T02:22:10;4.27;;;2.40;;
10365;SDS011;5229;41.820;23.490;2023-01-06T02:25:01;2.03;;;1.80;;
10365;SDS011;5229;41.820;23.490;2023-01-06T02:27:53;2.87;;;2.20;;
10365;SDS011;5229;41.820;23.490;2023-01-06T02:34:04;2.50;;;1.80;;
10365;SDS011;5229;41.820;23.490;2023-01-06T02:36:37;3.03;;;2.30;;
10365;SDS011;5229;41.820;23.490;2023-01-06T02:39:17;4.43;;;3.53;;
10365;SDS011;5229;41.820;23.490;2023-01-06T02:41:58;6.30;;;4.33;;
10365;SDS011;5229;41.820;23.490;2023-01-06T02:44:33;4.77;;;3.40;;
10365;SDS011;5229;41.820;23.490;2023-01-06T02:47:11;3.93;;;3.30;;
10365;SDS011;5229;41.820;23.490;2023-01-06T02:49:43;3.30;;;2.57;;
10365;SDS011;5229;41.820;23.490;2023-01-06T02:52:22;3.20;;;2.17;;
10365;SDS011;5229;41.820;23.490;2023-01-06T02:54:57;2.07;;;1.70;;
10365;SDS011;5229;41.820;23.490;2023-01-06T02:57:31;1.67;;;1.50;;
10365;SDS011;5229;41.820;23.490;2023-01-06T03:00:05;1.27;;;1.10;;
10365;SDS011;5229;41.820;23.490;2023-01-06T03:02:38;1.10;;;1.00;;
10365;SDS011;5229;41.820;23.490;2023-01-06T03:05:10;0.97;;;0.93;;
10365;SDS011;5229;41.820;23.490;2023-01-06T03:07:41;0.80;;;0.63;;
10365;SDS011;5229;41.820;23.490;2023-01-06T03:10:11;1.13;;;1.03;;
10365;SDS011;5229;41.820;23.490;2023-01-06T03:12:40;0.90;;;0.73;;
10365;SDS011;5229;41.820;23.490;2023-01-06T03:15:13;1.07;;;0.97;;
10365;SDS011;5229;41.820;23.490;2023-01-06T03:17:40;1.33;;;0.70;;
10365;SDS011;5229;41.820;23.490;2023-01-06T03:20:07;1.03;;;0.80;;
10365;SDS011;5229;41.820;23.490;2023-01-06T03:22:36;0.77;;;0.70;;
10365;SDS011;5229;41.820;23.490;2023-01-06T03:25:05;1.10;;;0.90;;
10365;SDS011;5229;41.820;23.490;2023-01-06T03:27:34;0.60;;;0.60;;
10365;SDS011;5229;41.820;23.490;2023-01-06T03:30:01;2.73;;;0.70;;
10365;SDS011;5229;41.820;23.490;2023-01-06T03:32:35;1.00;;;0.90;;
10365;SDS011;5229;41.820;23.490;2023-01-06T03:35:21;1.13;;;1.00;;
10365;SDS011;5229;41.820;23.490;2023-01-06T03:37:58;1.83;;;1.50;;
10365;SDS011;5229;41.820;23.490;2023-01-06T03:40:37;2.40;;;1.80;;
10365;SDS011;5229;41.820;23.490;2023-01-06T03:43:26;3.33;;;2.47;;
10365;SDS011;5229;41.820;23.490;2023-01-06T03:46:02;3.83;;;2.50;;
10365;SDS011;5229;41.820;23.490;2023-01-06T03:48:44;3.20;;;2.60;;
10365;SDS011;5229;41.820;23.490;2023-01-06T03:51:23;3.10;;;2.40;;
10365;SDS011;5229;41.820;23.490;2023-01-06T03:53:59;6.77;;;2.83;;
10365;SDS011;5229;41.820;23.490;2023-01-06T03:56:31;4.20;;;2.47;;
10365;SDS011;5229;41.820;23.490;2023-01-06T03:59:02;3.47;;;2.00;;
10365;SDS011;5229;41.820;23.490;2023-01-06T04:01:33;2.20;;;2.00;;
10365;SDS011;5229;41.820;23.490;2023-01-06T04:04:02;1.10;;;0.90;;
10365;SDS011;5229;41.820;23.490;2023-01-06T04:06:30;0.87;;;0.60;;
10365;SDS011;5229;41.820;23.490;2023-01-06T04:08:57;1.10;;;1.00;;
10365;SDS011;5229;41.820;23.490;2023-01-06T04:11:23;1.37;;;1.17;;
10365;SDS011;5229;41.820;23.490;2023-01-06T04:17:02;0.87;;;0.77;;
10365;SDS011;5229;41.820;23.490;2023-01-06T04:19:29;0.70;;;0.70;;
10365;SDS011;5229;41.820;23.490;2023-01-06T04:21:57;0.80;;;0.80;;
10365;SDS011;5229;41.820;23.490;2023-01-06T04:24:24;1.23;;;0.83;;
10365;SDS011;5229;41.820;23.490;2023-01-06T04:26:55;0.60;;;0.60;;
10365;SDS011;5229;41.820;23.490;2023-01-06T04:29:22;0.70;;;0.43;;
10365;SDS011;5229;41.820;23.490;2023-01-06T04:31:48;0.53;;;0.50;;
10365;SDS011;5229;41.820;23.490;2023-01-06T04:34:24;1.33;;;0.50;;
10365;SDS011;5229;41.820;23.490;2023-01-06T04:36:51;0.50;;;0.50;;
10365;SDS011;5229;41.820;23.490;2023-01-06T04:39:20;0.60;;;0.50;;
10365;SDS011;5229;41.820;23.490;2023-01-06T04:41:47;0.43;;;0.43;;
10365;SDS011;5229;41.820;23.490;2023-01-06T04:44:13;0.53;;;0.50;;
10365;SDS011;5229;41.820;23.490;2023-01-06T04:46:40;0.40;;;0.20;;
10365;SDS011;5229;41.820;23.490;2023-01-06T04:49:07;0.37;;;0.30;;
10365;SDS011;5229;41.820;23.490;2023-01-06T04:51:34;0.23;;;0.23;;
10365;SDS011;5229;41.820;23.490;2023-01-06T04:54:01;0.20;;;0.20;;
10365;SDS011;5229;41.820;23.490;2023-01-06T04:56:29;0.60;;;0.40;;
10365;SDS011;5229;41.820;23.490;2023-01-06T05:02:03;0.60;;;0.53;;
10365;SDS011;5229;41.820;23.490;2023-01-06T05:04:30;0.10;;;0.10;;
10365;SDS011;5229;41.820;23.490;2023-01-06T05:06:56;4.10;;;0.20;;
10365;SDS011;5229;41.820;23.490;2023-01-06T05:09:23;0.20;;;0.20;;
10365;SDS011;5229;41.820;23.490;2023-01-06T05:11:51;0.40;;;0.40;;
10365;SDS011;5229;41.820;23.490;2023-01-06T05:14:24;0.83;;;0.80;;
10365;SDS011;5229;41.820;23.490;2023-01-06T05:16:51;0.60;;;0.60;;
10365;SDS011;5229;41.820;23.490;2023-01-06T05:19:17;1.03;;;0.40;;
10365;SDS011;5229;41.820;23.490;2023-01-06T05:21:44;0.40;;;0.40;;
10365;SDS011;5229;41.820;23.490;2023-01-06T05:24:11;0.67;;;0.63;;
10365;SDS011;5229;41.820;23.490;2023-01-06T05:26:38;0.50;;;0.50;;
10365;SDS011;5229;41.820;23.490;2023-01-06T05:29:07;0.70;;;0.70;;
10365;SDS011;5229;41.820;23.490;2023-01-06T05:34:32;0.80;;;0.50;;
10365;SDS011;5229;41.820;23.490;2023-01-06T05:37:05;0.77;;;0.77;;
10365;SDS011;5229;41.820;23.490;2023-01-06T05:39:31;1.20;;;0.80;;
10365;SDS011;5229;41.820;23.490;2023-01-06T05:41:58;0.67;;;0.67;;
10365;SDS011;5229;41.820;23.490;2023-01-06T05:44:26;0.60;;;0.60;;
10365;SDS011;5229;41.820;23.490;2023-01-06T05:46:53;1.07;;;0.70;;
10365;SDS011;5229;41.820;23.490;2023-01-06T05:49:20;0.40;;;0.40;;
10365;SDS011;5229;41.820;23.490;2023-01-06T05:51:47;1.17;;;0.67;;
10365;SDS011;5229;41.820;23.490;2023-01-06T05:54:14;1.20;;;1.00;;
10365;SDS011;5229;41.820;23.490;2023-01-06T05:56:41;0.40;;;0.40;;
10365;SDS011;5229;41.820;23.490;2023-01-06T05:59:07;0.90;;;0.70;;
10365;SDS011;5229;41.820;23.490;2023-01-06T06:01:35;0.47;;;0.47;;
10365;SDS011;5229;41.820;23.490;2023-01-06T06:04:02;1.30;;;0.60;;
10365;SDS011;5229;41.820;23.490;2023-01-06T06:06:29;0.50;;;0.50;;
10365;SDS011;5229;41.820;23.490;2023-01-06T06:08:56;0.60;;;0.50;;
10365;SDS011;5229;41.820;23.490;2023-01-06T06:11:23;1.30;;;0.70;;
10365;SDS011;5229;41.820;23.490;2023-01-06T06:13:51;0.73;;;0.60;;
10365;SDS011;5229;41.820;23.490;2023-01-06T06:16:19;0.60;;;0.60;;
10365;SDS011;5229;41.820;23.490;2023-01-06T06:18:49;1.27;;;0.70;;
10365;SDS011;5229;41.820;23.490;2023-01-06T06:21:18;1.20;;;0.60;;
10365;SDS011;5229;41.820;23.490;2023-01-06T06:23:46;0.73;;;0.57;;
10365;SDS011;5229;41.820;23.490;2023-01-06T06:26:13;5.93;;;1.20;;
10365;SDS011;5229;41.820;23.490;2023-01-06T06:28:40;1.23;;;0.80;;
10365;SDS011;5229;41.820;23.490;2023-01-06T06:31:07;0.53;;;0.53;;
10365;SDS011;5229;41.820;23.490;2023-01-06T06:33:35;0.77;;;0.77;;
10365;SDS011;5229;41.820;23.490;2023-01-06T06:36:04;0.87;;;0.70;;
10365;SDS011;5229;41.820;23.490;2023-01-06T06:38:35;0.50;;;0.50;;
10365;SDS011;5229;41.820;23.490;2023-01-06T06:41:02;6.87;;;0.80;;
10365;SDS011;5229;41.820;23.490;2023-01-06T06:43:31;2.13;;;0.60;;
10365;SDS011;5229;41.820;23.490;2023-01-06T06:45:58;0.30;;;0.30;;
10365;SDS011;5229;41.820;23.490;2023-01-06T06:48:24;0.63;;;0.50;;
10365;SDS011;5229;41.820;23.490;2023-01-06T06:50:56;0.90;;;0.60;;
10365;SDS011;5229;41.820;23.490;2023-01-06T06:53:24;1.30;;;0.67;;
10365;SDS011;5229;41.820;23.490;2023-01-06T06:55:52;1.37;;;0.53;;
10365;SDS011;5229;41.820;23.490;2023-01-06T06:58:20;0.77;;;0.73;;
10365;SDS011;5229;41.820;23.490;2023-01-06T07:00:47;0.53;;;0.53;;
10365;SDS011;5229;41.820;23.490;2023-01-06T07:03:14;1.07;;;0.50;;
10365;SDS011;5229;41.820;23.490;2023-01-06T07:05:41;0.30;;;0.27;;
10365;SDS011;5229;41.820;23.490;2023-01-06T07:08:08;0.63;;;0.60;;
10365;SDS011;5229;41.820;23.490;2023-01-06T07:10:37;0.40;;;0.40;;
10365;SDS011;5229;41.820;23.490;2023-01-06T07:13:04;0.60;;;0.60;;
10365;SDS011;5229;41.820;23.490;2023-01-06T07:15:31;2.03;;;1.37;;
10365;SDS011;5229;41.820;23.490;2023-01-06T07:17:58;1.20;;;1.00;;
10365;SDS011;5229;41.820;23.490;2023-01-06T07:20:26;0.90;;;0.90;;
10365;SDS011;5229;41.820;23.490;2023-01-06T07:22:53;0.80;;;0.80;;
10365;SDS011;5229;41.820;23.490;2023-01-06T07:25:20;1.50;;;0.60;;
10365;SDS011;5229;41.820;23.490;2023-01-06T07:27:52;1.03;;;0.43;;
10365;SDS011;5229;41.820;23.490;2023-01-06T07:30:20;0.70;;;0.70;;
10365;SDS011;5229;41.820;23.490;2023-01-06T07:32:48;0.73;;;0.73;;
10365;SDS011;5229;41.820;23.490;2023-01-06T07:38:04;0.83;;;0.80;;
10365;SDS011;5229;41.820;23.490;2023-01-06T07:40:31;1.27;;;0.73;;
10365;SDS011;5229;41.820;23.490;2023-01-06T07:43:03;1.10;;;0.80;;
10365;SDS011;5229;41.820;23.490;2023-01-06T07:45:30;2.30;;;0.90;;
10365;SDS011;5229;41.820;23.490;2023-01-06T07:47:57;1.10;;;0.93;;
10365;SDS011;5229;41.820;23.490;2023-01-06T07:50:25;0.67;;;0.60;;
10365;SDS011;5229;41.820;23.490;2023-01-06T07:52:51;1.00;;;0.90;;
10365;SDS011;5229;41.820;23.490;2023-01-06T07:55:18;1.13;;;0.93;;
10365;SDS011;5229;41.820;23.490;2023-01-06T07:57:45;0.80;;;0.73;;
10365;SDS011;5229;41.820;23.490;2023-01-06T08:00:14;0.80;;;0.80;;
10365;SDS011;5229;41.820;23.490;2023-01-06T08:02:41;1.60;;;1.13;;
10365;SDS011;5229;41.820;23.490;2023-01-06T08:05:08;0.67;;;0.67;;
10365;SDS011;5229;41.820;23.490;2023-01-06T08:07:35;1.20;;;0.97;;
10365;SDS011;5229;41.820;23.490;2023-01-06T08:10:02;0.73;;;0.70;;
10365;SDS011;5229;41.820;23.490;2023-01-06T08:12:29;4.83;;;0.80;;
10365;SDS011;5229;41.820;23.490;2023-01-06T08:14:56;1.03;;;0.90;;
10365;SDS011;5229;41.820;23.490;2023-01-06T08:17:24;1.00;;;0.90;;
10365;SDS011;5229;41.820;23.490;2023-01-06T08:19:51;0.70;;;0.70;;
10365;SDS011;5229;41.820;23.490;2023-01-06T08:22:17;0.70;;;0.70;;
10365;SDS011;5229;41.820;23.490;2023-01-06T08:24:44;1.60;;;0.90;;
10365;SDS011;5229;41.820;23.490;2023-01-06T08:27:11;0.83;;;0.83;;
10365;SDS011;5229;41.820;23.490;2023-01-06T08:29:38;1.20;;;0.90;;
10365;SDS011;5229;41.820;23.490;2023-01-06T08:32:05;1.00;;;0.77;;
10365;SDS011;5229;41.820;23.490;2023-01-06T08:34:33;2.27;;;0.87;;
10365;SDS011;5229;41.820;23.490;2023-01-06T08:37:00;1.67;;;0.63;;
10365;SDS011;5229;41.820;23.490;2023-01-06T08:39:27;0.80;;;0.70;;
10365;SDS011;5229;41.820;23.490;2023-01-06T08:41:56;1.23;;;0.60;;
10365;SDS011;5229;41.820;23.490;2023-01-06T08:44:23;1.10;;;0.60;;
10365;SDS011;5229;41.820;23.490;2023-01-06T08:46:50;1.00;;;0.83;;
10365;SDS011;5229;41.820;23.490;2023-01-06T08:49:17;0.60;;;0.60;;
10365;SDS011;5229;41.820;23.490;2023-01-06T08:51:45;0.70;;;0.70;;
10365;SDS011;5229;41.820;23.490;2023-01-06T08:54:12;0.60;;;0.60;;
10365;SDS011;5229;41.820;23.490;2023-01-06T08:56:39;0.40;;;0.40;;
10365;SDS011;5229;41.820;23.490;2023-01-06T08:59:10;8.13;;;1.00;;
10365;SDS011;5229;41.820;23.490;2023-01-06T09:01:39;0.80;;;0.67;;
10365;SDS011;5229;41.820;23.490;2023-01-06T09:04:06;1.10;;;0.70;;
10365;SDS011;5229;41.820;23.490;2023-01-06T09:06:34;0.93;;;0.70;;
10365;SDS011;5229;41.820;23.490;2023-01-06T09:09:03;0.70;;;0.70;;
10365;SDS011;5229;41.820;23.490;2023-01-06T09:11:31;2.93;;;0.93;;
10365;SDS011;5229;41.820;23.490;2023-01-06T09:13:58;0.70;;;0.70;;
10365;SDS011;5229;41.820;23.490;2023-01-06T09:16:25;0.50;;;0.50;;
10365;SDS011;5229;41.820;23.490;2023-01-06T09:18:52;0.53;;;0.53;;
10365;SDS011;5229;41.820;23.490;2023-01-06T09:21:19;1.20;;;0.60;;
10365;SDS011;5229;41.820;23.490;2023-01-06T09:23:47;0.93;;;0.63;;
10365;SDS011;5229;41.820;23.490;2023-01-06T09:26:16;0.57;;;0.53;;
10365;SDS011;5229;41.820;23.490;2023-01-06T09:28:44;0.70;;;0.70;;
10365;SDS011;5229;41.820;23.490;2023-01-06T09:31:11;0.75;;;0.70;;
10365;SDS011;5229;41.820;23.490;2023-01-06T09:33:38;1.02;;;0.82;;
10365;SDS011;5229;41.820;23.490;2023-01-06T09:36:05;0.60;;;0.50;;
10365;SDS011;5229;41.820;23.490;2023-01-06T09:38:32;0.60;;;0.60;;
10365;SDS011;5229;41.820;23.490;2023-01-06T09:41:19;0.80;;;0.80;;
10365;SDS011;5229;41.820;23.490;2023-01-06T09:44:00;1.15;;;0.68;;
10365;SDS011;5229;41.820;23.490;2023-01-06T09:46:34;1.00;;;0.90;;
10365;SDS011;5229;41.820;23.490;2023-01-06T09:49:06;0.60;;;0.60;;
10365;SDS011;5229;41.820;23.490;2023-01-06T09:51:39;1.25;;;0.80;;
10365;SDS011;5229;41.820;23.490;2023-01-06T09:54:08;1.00;;;0.90;;
10365;SDS011;5229;41.820;23.490;2023-01-06T09:56:42;0.90;;;0.90;;
10365;SDS011;5229;41.820;23.490;2023-01-06T09:59:13;1.20;;;1.08;;
10365;SDS011;5229;41.820;23.490;2023-01-06T10:01:47;0.70;;;0.70;;
10365;SDS011;5229;41.820;23.490;2023-01-06T10:04:16;0.73;;;0.70;;
10365;SDS011;5229;41.820;23.490;2023-01-06T10:06:49;0.85;;;0.75;;
10365;SDS011;5229;41.820;23.490;2023-01-06T10:09:26;0.98;;;0.93;;
10365;SDS011;5229;41.820;23.490;2023-01-06T10:12:03;0.90;;;0.90;;
10365;SDS011;5229;41.820;23.490;2023-01-06T10:14:43;0.73;;;0.73;;
10365;SDS011;5229;41.820;23.490;2023-01-06T10:17:33;0.65;;;0.60;;
10365;SDS011;5229;41.820;23.490;2023-01-06T10:20:16;1.98;;;1.08;;
10365;SDS011;5229;41.820;23.490;2023-01-06T10:22:57;0.90;;;0.90;;
10365;SDS011;5229;41.820;23.490;2023-01-06T10:25:30;1.73;;;0.98;;
10365;SDS011;5229;41.820;23.490;2023-01-06T10:28:01;0.80;;;0.80;;
10365;SDS011;5229;41.820;23.490;2023-01-06T10:30:36;0.88;;;0.88;;
10365;SDS011;5229;41.820;23.490;2023-01-06T10:33:08;0.80;;;0.80;;
10365;SDS011;5229;41.820;23.490;2023-01-06T10:35:46;0.60;;;0.60;;
10365;SDS011;5229;41.820;23.490;2023-01-06T10:38:13;0.60;;;0.60;;
10365;SDS011;5229;41.820;23.490;2023-01-06T10:40:42;0.70;;;0.70;;
10365;SDS011;5229;41.820;23.490;2023-01-06T10:43:11;1.83;;;0.90;;
10365;SDS011;5229;41.820;23.490;2023-01-06T10:45:40;3.15;;;1.10;;
10365;SDS011;5229;41.820;23.490;2023-01-06T10:48:09;1.48;;;1.38;;
10365;SDS011;5229;41.820;23.490;2023-01-06T10:50:38;1.88;;;1.75;;
10365;SDS011;5229;41.820;23.490;2023-01-06T10:53:05;1.05;;;0.95;;
10365;SDS011;5229;41.820;23.490;2023-01-06T10:55:37;0.93;;;0.70;;
10365;SDS011;5229;41.820;23.490;2023-01-06T10:58:15;0.85;;;0.85;;
10365;SDS011;5229;41.820;23.490;2023-01-06T11:01:31;0.70;;;0.70;;
10365;SDS011;5229;41.820;23.490;2023-01-06T11:04:04;1.02;;;1.00;;
10365;SDS011;5229;41.820;23.490;2023-01-06T11:06:36;2.55;;;0.85;;
10365;SDS011;5229;41.820;23.490;2023-01-06T11:09:05;2.33;;;1.05;;
10365;SDS011;5229;41.820;23.490;2023-01-06T11:11:43;1.20;;;0.98;;
10365;SDS011;5229;41.820;23.490;2023-01-06T11:14:15;2.33;;;0.87;;
10365;SDS011;5229;41.820;23.490;2023-01-06T11:16:51;1.50;;;0.90;;
10365;SDS011;5229;41.820;23.490;2023-01-06T11:19:22;1.77;;;1.00;;
10365;SDS011;5229;41.820;23.490;2023-01-06T11:21:57;1.93;;;0.90;;
10365;SDS011;5229;41.820;23.490;2023-01-06T11:24:24;1.03;;;0.70;;
10365;SDS011;5229;41.820;23.490;2023-01-06T11:26:52;1.83;;;1.10;;
10365;SDS011;5229;41.820;23.490;2023-01-06T11:29:26;1.10;;;1.00;;
10365;SDS011;5229;41.820;23.490;2023-01-06T11:31:54;0.83;;;0.60;;
10365;SDS011;5229;41.820;23.490;2023-01-06T11:34:23;0.80;;;0.80;;
10365;SDS011;5229;41.820;23.490;2023-01-06T11:36:53;1.20;;;1.10;;
10365;SDS011;5229;41.820;23.490;2023-01-06T11:39:22;7.93;;;1.13;;
10365;SDS011;5229;41.820;23.490;2023-01-06T11:41:53;1.00;;;0.80;;
10365;SDS011;5229;41.820;23.490;2023-01-06T11:44:24;0.63;;;0.63;;
10365;SDS011;5229;41.820;23.490;2023-01-06T11:46:56;1.30;;;0.90;;
10365;SDS011;5229;41.820;23.490;2023-01-06T11:49:28;0.67;;;0.60;;
10365;SDS011;5229;41.820;23.490;2023-01-06T11:51:58;0.70;;;0.70;;
10365;SDS011;5229;41.820;23.490;2023-01-06T11:54:30;1.37;;;0.90;;
10365;SDS011;5229;41.820;23.490;2023-01-06T11:56:59;1.03;;;0.93;;
10365;SDS011;5229;41.820;23.490;2023-01-06T11:59:32;1.20;;;0.83;;
10365;SDS011;5229;41.820;23.490;2023-01-06T12:02:12;0.73;;;0.73;;
10365;SDS011;5229;41.820;23.490;2023-01-06T12:05:28;0.83;;;0.80;;
10365;SDS011;5229;41.820;23.490;2023-01-06T12:08:01;0.80;;;0.80;;
10365;SDS011;5229;41.820;23.490;2023-01-06T12:10:32;1.27;;;0.70;;
10365;SDS011;5229;41.820;23.490;2023-01-06T12:13:01;1.53;;;0.80;;
10365;SDS011;5229;41.820;23.490;2023-01-06T12:15:30;0.93;;;0.80;;
10365;SDS011;5229;41.820;23.490;2023-01-06T12:18:00;1.37;;;1.07;;
10365;SDS011;5229;41.820;23.490;2023-01-06T12:20:33;0.83;;;0.70;;
10365;SDS011;5229;41.820;23.490;2023-01-06T12:23:03;1.67;;;0.70;;
10365;SDS011;5229;41.820;23.490;2023-01-06T12:25:34;1.03;;;0.83;;
10365;SDS011;5229;41.820;23.490;2023-01-06T12:28:05;0.70;;;0.70;;
10365;SDS011;5229;41.820;23.490;2023-01-06T12:30:41;1.40;;;0.70;;
10365;SDS011;5229;41.820;23.490;2023-01-06T12:33:16;1.00;;;0.90;;
10365;SDS011;5229;41.820;23.490;2023-01-06T12:35:50;1.83;;;1.10;;
10365;SDS011;5229;41.820;23.490;2023-01-06T12:38:39;1.20;;;1.00;;
10365;SDS011;5229;41.820;23.490;2023-01-06T12:41:13;1.47;;;0.70;;
10365;SDS011;5229;41.820;23.490;2023-01-06T12:43:48;0.60;;;0.60;;
10365;SDS011;5229;41.820;23.490;2023-01-06T12:46:25;0.80;;;0.70;;
10365;SDS011;5229;41.820;23.490;2023-01-06T12:48:56;1.77;;;1.13;;
10365;SDS011;5229;41.820;23.490;2023-01-06T12:51:29;1.53;;;1.00;;
10365;SDS011;5229;41.820;23.490;2023-01-06T12:54:01;1.33;;;0.87;;
10365;SDS011;5229;41.820;23.490;2023-01-06T12:56:39;0.70;;;0.70;;
10365;SDS011;5229;41.820;23.490;2023-01-06T12:59:21;0.87;;;0.80;;
10365;SDS011;5229;41.820;23.490;2023-01-06T13:05:24;1.13;;;0.80;;
10365;SDS011;5229;41.820;23.490;2023-01-06T13:08:01;0.83;;;0.80;;
10365;SDS011;5229;41.820;23.490;2023-01-06T13:10:42;1.00;;;0.93;;
10365;SDS011;5229;41.820;23.490;2023-01-06T13:13:28;1.40;;;1.00;;
10365;SDS011;5229;41.820;23.490;2023-01-06T13:16:04;0.90;;;0.70;;
10365;SDS011;5229;41.820;23.490;2023-01-06T13:18:40;0.60;;;0.60;;
10365;SDS011;5229;41.820;23.490;2023-01-06T13:21:12;0.93;;;0.90;;
10365;SDS011;5229;41.820;23.490;2023-01-06T13:23:51;1.70;;;1.00;;
10365;SDS011;5229;41.820;23.490;2023-01-06T13:26:45;1.20;;;0.90;;
10365;SDS011;5229;41.820;23.490;2023-01-06T13:30:11;0.70;;;0.70;;
10365;SDS011;5229;41.820;23.490;2023-01-06T13:32:59;0.77;;;0.77;;
10365;SDS011;5229;41.820;23.490;2023-01-06T13:36:10;1.07;;;0.80;;
10365;SDS011;5229;41.820;23.490;2023-01-06T13:38:57;2.43;;;1.07;;
10365;SDS011;5229;41.820;23.490;2023-01-06T13:41:30;1.50;;;0.70;;
10365;SDS011;5229;41.820;23.490;2023-01-06T13:44:01;1.07;;;0.80;;
10365;SDS011;5229;41.820;23.490;2023-01-06T13:46:30;0.90;;;0.90;;
10365;SDS011;5229;41.820;23.490;2023-01-06T13:48:59;2.93;;;0.83;;
10365;SDS011;5229;41.820;23.490;2023-01-06T13:51:31;0.60;;;0.50;;
10365;SDS011;5229;41.820;23.490;2023-01-06T13:54:00;0.60;;;0.60;;
10365;SDS011;5229;41.820;23.490;2023-01-06T13:56:28;2.03;;;0.80;;
10365;SDS011;5229;41.820;23.490;2023-01-06T13:59:16;1.83;;;1.10;;
10365;SDS011;5229;41.820;23.490;2023-01-06T14:01:48;0.80;;;0.70;;
10365;SDS011;5229;41.820;23.490;2023-01-06T14:07:13;1.63;;;0.80;;
10365;SDS011;5229;41.820;23.490;2023-01-06T14:09:47;0.70;;;0.70;;
10365;SDS011;5229;41.820;23.490;2023-01-06T14:12:16;1.13;;;0.90;;
10365;SDS011;5229;41.820;23.490;2023-01-06T14:14:53;0.80;;;0.80;;
10365;SDS011;5229;41.820;23.490;2023-01-06T14:17:28;0.50;;;0.50;;
10365;SDS011;5229;41.820;23.490;2023-01-06T14:20:01;0.60;;;0.60;;
10365;SDS011;5229;41.820;23.490;2023-01-06T14:22:30;3.17;;;0.90;;
10365;SDS011;5229;41.820;23.490;2023-01-06T14:24:59;1.17;;;0.80;;
10365;SDS011;5229;41.820;23.490;2023-01-06T14:30:34;1.47;;;1.07;;
10365;SDS011;5229;41.820;23.490;2023-01-06T14:33:03;1.43;;;1.10;;
10365;SDS011;5229;41.820;23.490;2023-01-06T14:35:45;0.80;;;0.80;;
10365;SDS011;5229;41.820;23.490;2023-01-06T14:38:24;1.47;;;0.80;;
10365;SDS011;5229;41.820;23.490;2023-01-06T14:40:58;3.53;;;0.83;;
10365;SDS011;5229;41.820;23.490;2023-01-06T14:43:49;1.73;;;0.90;;
10365;SDS011;5229;41.820;23.490;2023-01-06T14:46:19;1.00;;;0.70;;
10365;SDS011;5229;41.820;23.490;2023-01-06T14:48:52;0.77;;;0.77;;
10365;SDS011;5229;41.820;23.490;2023-01-06T14:51:23;0.70;;;0.70;;
10365;SDS011;5229;41.820;23.490;2023-01-06T14:53:53;0.70;;;0.50;;
10365;SDS011;5229;41.820;23.490;2023-01-06T14:56:24;0.80;;;0.80;;
10365;SDS011;5229;41.820;23.490;2023-01-06T14:59:04;1.47;;;0.90;;
10365;SDS011;5229;41.820;23.490;2023-01-06T15:01:37;1.03;;;0.77;;
10365;SDS011;5229;41.820;23.490;2023-01-06T15:04:16;3.83;;;0.83;;
10365;SDS011;5229;41.820;23.490;2023-01-06T15:06:54;1.37;;;1.10;;
10365;SDS011;5229;41.820;23.490;2023-01-06T15:09:27;0.83;;;0.83;;
10365;SDS011;5229;41.820;23.490;2023-01-06T15:11:54;1.17;;;0.73;;
10365;SDS011;5229;41.820;23.490;2023-01-06T15:14:28;0.47;;;0.47;;
10365;SDS011;5229;41.820;23.490;2023-01-06T15:16:57;0.40;;;0.40;;
10365;SDS011;5229;41.820;23.490;2023-01-06T15:19:26;0.50;;;0.50;;
10365;SDS011;5229;41.820;23.490;2023-01-06T15:21:54;1.37;;;0.80;;
10365;SDS011;5229;41.820;23.490;2023-01-06T15:24:23;1.13;;;1.00;;
10365;SDS011;5229;41.820;23.490;2023-01-06T15:26:54;0.67;;;0.67;;
10365;SDS011;5229;41.820;23.490;2023-01-06T15:29:22;0.70;;;0.60;;
10365;SDS011;5229;41.820;23.490;2023-01-06T15:31:51;1.27;;;0.87;;
10365;SDS011;5229;41.820;23.490;2023-01-06T15:34:24;0.47;;;0.47;;
10365;SDS011;5229;41.820;23.490;2023-01-06T15:37:00;0.60;;;0.60;;
10365;SDS011;5229;41.820;23.490;2023-01-06T15:39:30;0.80;;;0.80;;
10365;SDS011;5229;41.820;23.490;2023-01-06T15:42:00;0.57;;;0.47;;
10365;SDS011;5229;41.820;23.490;2023-01-06T15:44:31;0.70;;;0.70;;
10365;SDS011;5229;41.820;23.490;2023-01-06T15:47:03;0.67;;;0.63;;
10365;SDS011;5229;41.820;23.490;2023-01-06T15:49:41;0.50;;;0.50;;